TAF LEPA
LEPA 081700Z 0818/0918 29012KT 9999 FEW025 TX16/0912Z TN08/0906Z PROB30 TEMPO 0818/0914 4500 SHRA FEW030TCU PROB40 TEMPO 0820/0824 30015G25KT TEMPO 0900/0908 30016G30KT PROB30 TEMPO 0908/0912 30015G25KT=
METAR LEPA
LEPA 082300Z 32016KT 9999 FEW025 SCT060 12/00 Q1011 NOSIG=
LEPA 082230Z 31012KT 260V340 9999 FEW025 SCT060 12/01 Q1011 NOSIG=
LEPA 082200Z 32015KT 9999 FEW025 13/01 Q1011 NOSIG=
LEPA 082130Z 30013KT 270V330 9999 FEW025 13/00 Q1011 NOSIG=
LEPA 082100Z 31015KT 290V350 9999 FEW025 13/00 Q1010 NOSIG=
WC LEPA
WS LEPA
WV LEPA